Amstetten, Austria

5:27 PM CET on February 12, 2016 (GMT +0100)
DBSolutions, Winklarn, Austria | | Change Station
CLOSE
Current Station
Personal Weather Station
Location: Winklarn, NIEDERöSTERREICH
Elevation: 1050 ft
Nearby Weather Stations

Elev 1050 ft 48.09 °N, 14.85 °E | Updated 15 seconds ago

Partly Cloudy
Partly Cloudy
37.6 °F
Feels Like 38 °F
N
1.1
Wind Variable Wind from East
Gusts 2.5 mph

Today
High -- | Low -- °F
--% Chance of Precip.
Yesterday
High -- | Low -- °F
Precip. -- in
Pressure 29.50 in
Visibility 6.2 miles
Clouds Few 2000 ft
Windchill 38 °F
Dew Point 26 °F
Humidity 62%
Rainfall 0.00 in
Snow Depth Not available.
7:13 AM 5:16 PM
Waxing Crescent, 21% visible
METAR LOWL 121620Z 08007KT 9999 FEW020 03/M01 Q0999 R08/19//95 NOSIG
Pressure 29.50 in
Visibility 6.2 miles
Clouds Few 2000 ft
Windchill 38 °F
Dew Point 26 °F
Humidity 62%
Rainfall 0.00 in
Snow Depth Not available.
7:13 AM 5:16 PM
Waxing Crescent, 21% visible
METAR LOWL 121620Z 08007KT 9999 FEW020 03/M01 Q0999 R08/19//95 NOSIG

10-Day Weather Forecast

Almanac

Astronomy

Feb. 12, 2016 Rise Set
Actual Time
Civil Twilight
Nautical Twilight
Astronomical Twilight
Moon
Length of Visible Light
Length of Day
Tomorrow will be .
, % of the Moon is Illuminated

Today's Extremes

Country Highs Country Lows

Community

WunderPhotos

Upload Photos

1,892,350 photos uploaded!

WunderBlog® & News

Nearby

Air Quality

  Air Quality AQ Index Pollutant
Not available.

Snow Depth

Station Depth Elevation

Earthquake Activity

City Distance Mag. Time & Date
Minimum magnitude displayed is 2.5.

Coastal Water Temperatures

Place Temperature

Stations

Nearby Weather Stations

Station Location Temp. Windchill Dew Point Humidity Wind Precip. Elev Updated Type